Tiempo atmosférico en la estación meteorológica de Ayamonte, Huelva (2 m.)



Fecha
DESCASC
Temp. máxima en grados centígrados (hora)
DESCASC
Temp. mínima en grados centígrados (hora)
DESCASC
Temp. media en grados centígrados
DESCASC
Racha de viento máxima en m/sg (hora)
DESCASC
Velocidad máxima media en intervalos de 10 minutos(hora)
DESCASC
Precipitaciones diarias en mm
DESCASC
Precipitaciones de 00:00 a 06:00 en mm
DESCASC
Precipitaciones de 06:00 a 12:00 en mm
DESCASC
Precipitaciones de 12:00 a 18:00 en mm
DESCASC
Precipitaciones de 18:00 a 24:00 en mm
DESCASC
29-10-2020 26.9 (14:40) 15 (23:59) 20.9 5 (12:40) 2.5 (14:50) 0 0 0 0 0
28-10-2020 23.8 (16:30) 12.5 (08:20) 18.1 5.28 (14:40) 2.78 (16:40) 0 0 0 0 0
27-10-2020 21.7 (15:00) 11.1 (00:00) 16.4 6.11 (17:20) 3.61 (15:00) 0 0 0 0 0
26-10-2020 20.8 (15:00) 12.5 (00:00) 16.6 6.39 (11:00) 3.33 (00:20) 0 0 0 0 0
25-10-2020 22.8 (14:40) 11.1 (00:00) 16.9 11.67 (18:00) 6.39 (18:00) 1.2 0 0 0 1.2
24-10-2020 22.1 (13:40) 13.6 (00:00) 17.9 5.56 (03:10) 3.33 (18:30) 0 0 0 0 0
23-10-2020 22.8 (15:50) 12.1 (00:00) 17.4 5.83 (15:10) 3.33 (15:40) 0 0 0 0 0
22-10-2020 22.3 (16:20) 15.3 (00:00) 18.8 8.61 (17:30) 5.28 (17:30) 0.2 0 0.1 0.1 0
21-10-2020 23.6 (15:30) 16.6 (00:00) 20.1 8.61 (17:30) 5 (17:30) 10.1 1.6 0.1 0.3 8.1
20-10-2020 21.2 (11:10) 17.1 (00:00) 19.2 18.33 (18:30) 11.39 (18:30) 32.8 10.6 0.7 8.9 12.6
19-10-2020 24.1 (13:40) 12.5 (00:00) 18.3 8.89 (14:40) 4.72 (14:20) 0 0 0 0 0
18-10-2020 24.4 (16:10) 10.6 (00:00) 17.5 6.11 (13:30) 3.33 (14:40) 0 0 0 0 0
17-10-2020 23.5 (14:10) 9.7 (00:00) 16.6 4.72 (15:00) 2.78 (15:10) 0 0 0 0 0
16-10-2020 23 (14:50) 12.3 (00:00) 17.7 6.67 (00:40) 3.33 (16:10) 0 0 0 0 0
15-10-2020 24.2 (15:50) 12.7 (00:00) 18.5 8.89 (03:40) 4.17 (16:40) 0 0 0 0 0
14-10-2020 24.5 (16:50) 14.6 (00:00) 19.6 12.78 (01:40) 6.11 (01:40) 0 0 0 0 0
13-10-2020 26.5 (13:50) 14.1 (00:00) 20.3 8.33 (23:30) 4.44 (23:30) 0 0 0 0 0
12-10-2020 27.6 (16:10) 12.7 (00:00) 20.2 8.33 (12:40) 4.17 (12:20) 0 0 0 0 0
11-10-2020 27.2 (12:50) 15.4 (00:00) 21.3 5.56 (14:40) 3.61 (16:30) 0 0 0 0 0
10-10-2020 27 (12:50) 17.2 (00:00) 22.1 6.39 (03:50) 3.33 (17:10) 0 0 0 0 0
09-10-2020 26.7 (15:50) 17.5 (00:00) 22.1 5 (16:10) 2.78 (17:30) 0 0 0 0 0
08-10-2020 30.6 (16:30) 18.5 (00:00) 24.6 4.17 (01:20) 2.22 (13:50) 0 0 0 0 0
07-10-2020 32 (15:30) 18.3 (00:00) 25.1 7.5 (09:30) 2.78 (07:10) 0 0 0 0 0
06-10-2020 28.5 (15:10) 17.1 (00:00) 22.8 7.22 (18:00) 4.17 (17:40) 0 0 0 0 0
05-10-2020 26.4 (17:30) 15.3 (00:00) 20.8 8.61 (15:40) 3.89 (16:00) 0 0 0 0 0
04-10-2020 24.8 (16:50) 12 (00:00) 18.4 9.17 (16:10) 5.28 (15:40) 0 0 0 0 0
03-10-2020 23.9 (14:30) 12.8 (00:00) 18.3 8.89 (17:30) 5 (16:50) 0 0 0 0 0
02-10-2020 25.5 (13:30) 16.8 (00:00) 21.1 12.5 (17:50) 6.11 (17:50) 0 0 0 0 0
01-10-2020 -- (--) -- (--) -- -- (--) -- (--) 0 0 0 0 0
30-09-2020 26.6 (14:50) 18.4 (00:00) 22.5 6.39 (23:59) 3.33 (23:59) 0 0 0 0 0

Gráficas

Temp. máximas Temp. mínimas Temp. medias Precipitaciones Rachas de viento máximas Velocidades máximas media en intervalos de 10 minutos

Datos horarios

Fecha y hora oficial Temperatura (ºC) Velocidad del viento (km/h) Dirección del viento Racha (km/h) Dirección de racha Precipitación (mm) Presión (hPa) Tendencia (hPa) Humedad (%)
2020-10-29 23:00:00 15.7 0 Calma 3 Noroeste 0 1022.6 0.8 75
2020-10-29 22:00:00 16.8 2 Noroeste 10 Noroeste 0 1022.3 0.9 74
2020-10-29 21:00:00 17.5 2 Noroeste 3 Noroeste 0 1021.9 0.9 69
2020-10-29 20:00:00 18.2 0 Calma 5 Oeste 0 1021.8 0.7 66
2020-10-29 19:00:00 20 0 Calma 5 Sur 0 1021.4 0.3 58
2020-10-29 18:00:00 22 3 Sur 9 Sur 0 1021 -0.4 51
2020-10-29 17:00:00 23.6 5 Sur 9 Sur 0 1021.1 -1 45
2020-10-29 16:00:00 23.8 5 Sur 12 Sudoeste 0 1021.1 -1.6 46
2020-10-29 15:00:00 24 8 Sur 17 Sur 0 1021.4 -2.1 45
2020-10-29 14:00:00 25.2 8 Sudeste 15 Sudeste 0 1022.1 -- 39
2020-10-29 13:00:00 25.5 8 Este 18 Este 0 1022.7 -- 41
2020-10-29 12:00:00 23.4 3 Norte 14 Norte 0 1023.5 -- 50
2020-10-29 11:00:00 20.8 5 Noroeste 13 Noroeste 0 1023.9 -- 61
2020-10-29 10:00:00 18.4 8 Norte 15 Noroeste 0 1023.8 -- 68
2020-10-29 09:00:00 17.8 4 Norte 15 Norte 0 1023.3 -- 74
2020-10-29 08:00:00 16.9 6 Norte 17 Norte 0 1022.7 -- 76
2020-10-29 07:00:00 16.9 5 Norte 15 Noroeste 0 1022.4 -- 76
2020-10-29 06:00:00 17 4 Norte 11 Norte 0 1022.1 -- 76
2020-10-29 05:00:00 17.1 4 Norte 12 Noroeste 0 1021.9 -- 75
2020-10-29 04:00:00 17.3 3 Norte 14 Norte 0 1021.9 -- 74
2020-10-29 03:00:00 17.5 3 Norte 12 Norte 0 1022.1 -- 73
2020-10-29 02:00:00 17.4 3 Norte 10 Norte 0 1022.1 -- 73
2020-10-29 01:00:00 17.9 4 Norte 15 Noroeste 0 1022.4 -- 70
2020-10-29 00:00:00 18.4 5 Norte 14 Noroeste 0 1022.6 -- 69
2020-10-28 23:00:00 18.6 3 Norte 13 Norte 0 1022.7 -- 67
2020-10-28 22:00:00 19.3 2 Norte 15 Norte 0 1022.5 -- 66
2020-10-28 21:00:00 18.5 3 Noroeste 12 Noroeste 0 1022.1 -- 71
2020-10-28 20:00:00 17.8 3 Oeste 7 Oeste 0 1022 -- 70
2020-10-28 19:00:00 18.3 4 Sudoeste 13 Oeste 0 1021.4 -- 63
2020-10-28 18:00:00 20 6 Oeste 15 Sudoeste 0 1020.9 -- 53
2020-10-28 17:00:00 21.8 8 Sudoeste 18 Sudoeste 0 1021 -- 49
2020-10-28 16:00:00 23.1 5 Norte 19 Noroeste 0 1021.3 -- 45
2020-10-28 15:00:00 22.1 7 Norte 19 Noroeste 0 1021.4 -- 44
2020-10-28 14:00:00 21.9 8 Noroeste 15 Noroeste 0 1021.6 -- 45
2020-10-28 13:00:00 21.4 6 Noroeste 13 Noroeste 0 1022.5 -- 49
2020-10-28 12:00:00 19.9 5 Noroeste 15 Noroeste 0 1023 -- 54
2020-10-28 11:00:00 18 4 Norte 13 Nordeste 0 1022.9 -- 60
2020-10-28 10:00:00 15.4 3 Norte 13 Noroeste 0 1022.7 -- 69
2020-10-28 09:00:00 14.1 6 Noroeste 12 Noroeste 0 1022.3 -- 74
2020-10-28 08:00:00 12.7 5 Noroeste 11 Noroeste 0 1021.3 -- 79
2020-10-28 07:00:00 13 4 Noroeste 10 Noroeste 0 1020.9 -- 75
2020-10-28 06:00:00 13.7 5 Norte 13 Norte 0 1020.7 -- 74
2020-10-28 05:00:00 13.4 5 Noroeste 10 Norte 0 1020.5 -- 74
2020-10-28 04:00:00 13.9 3 Norte 13 Noroeste 0 1020.5 -- 72
2020-10-28 03:00:00 14.4 4 Norte 13 Norte 0 1020.7 -- 70
2020-10-28 02:00:00 14.6 3 Norte 11 Norte 0 1020.8 -- 69
2020-10-28 01:00:00 15.1 4 Norte 13 Norte 0 1021.2 -- 68
2020-10-28 00:00:00 14.6 4 Noroeste 9 Norte 0 1021.3 -- 70
2020-10-27 23:00:00 14.2 4 Noroeste 8 Noroeste 0 1021.3 -- 74
2020-10-27 22:00:00 14.2 3 Noroeste 6 Norte 0 1021 -- 71
2020-10-27 21:00:00 15.4 4 Oeste 6 Oeste 0 1020.8 -- 65
2020-10-27 20:00:00 16.3 3 Sudoeste 12 Oeste 0 1020.5 -- 60
2020-10-27 19:00:00 17 7 Oeste 15 Sudoeste 0 1020.3 -- 54
2020-10-27 18:00:00 18.3 9 Sudoeste 22 Sudoeste 0 1020.1 -- 45
2020-10-27 17:00:00 19.6 12 Sudoeste 22 Sudoeste 0 1020.2 -- 43
2020-10-27 16:00:00 21 11 Sudoeste 20 Sudoeste 0 1020.4 -- 39
2020-10-27 15:00:00 21.3 13 Sudoeste 22 Oeste 0 1020.4 -- 39
2020-10-27 14:00:00 20.1 6 Norte 17 Norte 0 1021.1 -- 36
2020-10-27 13:00:00 19.4 5 Noroeste 13 Norte 0 1022 -- 38
2020-10-27 12:00:00 18.8 4 Noroeste 10 Norte 0 1022.6 -- 40
2020-10-27 11:00:00 17.2 4 Norte 10 Norte 0 1022.7 -- 49
2020-10-27 10:00:00 15.1 4 Norte 14 Noroeste 0 1022.7 -- 58
2020-10-27 09:00:00 12.8 5 Norte 10 Norte 0 1022.4 -- 65
2020-10-27 08:00:00 11.2 0 Calma 8 Noroeste 0 1021.8 -- 72
2020-10-27 07:00:00 11.4 0 Calma 9 Norte 0 1021.5 -- 72
2020-10-27 06:00:00 11.6 2 Nordeste 10 Noroeste 0 1021.3 -- 72
2020-10-27 05:00:00 11.6 2 Norte 8 Noroeste 0 1021.2 -- 70
2020-10-27 04:00:00 12.3 3 Norte 13 Norte 0 1021.5 -- 69
2020-10-27 03:00:00 12.9 5 Norte 13 Norte 0 1021.9 -- 68
2020-10-27 02:00:00 13.7 7 Norte 15 Noroeste 0 1022 -- 64
2020-10-27 01:00:00 14 5 Noroeste 15 Noroeste 0 1022.3 -- 63
2020-10-27 00:00:00 14 4 Norte 14 Norte 0 1022.8 -- 61
2020-10-26 23:00:00 14.2 5 Noroeste 12 Noroeste 0 1022.9 -- 59
2020-10-26 22:00:00 13 0 Calma 7 Norte 0 1022.5 -- 64
2020-10-26 21:00:00 13.7 3 Noroeste 5 Noroeste 0 1022.2 -- 58
2020-10-26 20:00:00 14.7 0 Calma 4 Noroeste 0 1021.8 -- 51
2020-10-26 19:00:00 16.5 2 Noroeste 13 Noroeste 0 1021.1 -- 42
2020-10-26 18:00:00 18.7 7 Norte 21 Noroeste 0 1020.8 -- 35
2020-10-26 17:00:00 19.6 8 Noroeste 19 Noroeste 0 1020.8 -- 34
2020-10-26 16:00:00 19.8 10 Noroeste 23 Norte 0 1020.8 -- 34
2020-10-26 15:00:00 20.3 8 Noroeste 22 Noroeste 0 1021.1 -- 34
2020-10-26 14:00:00 20 7 Norte 21 Noroeste 0 1021.4 -- 35
2020-10-26 13:00:00 18.9 10 Norte 22 Noroeste 0 1022.2 -- 36
2020-10-26 12:00:00 18.9 4 Norte 17 Noroeste 0 1022.5 -- 42
2020-10-26 11:00:00 17.2 7 Norte 23 Norte 0 1022.3 -- 47
2020-10-26 10:00:00 16.7 5 Noroeste 15 Norte 0 1021.8 -- 56
2020-10-26 09:00:00 15.4 4 Noroeste 15 Norte 0 1021.2 -- 64
2020-10-26 08:00:00 13.7 6 Norte 14 Noroeste 0 1020.4 -- 72
2020-10-26 07:00:00 13.9 3 Noroeste 13 Norte 0 1019.8 -- 70
2020-10-26 06:00:00 13.9 3 Noroeste 10 Oeste 0 1019.4 -- 70
2020-10-26 05:00:00 14.9 6 Noroeste 14 Noroeste 0 1019.1 -- 68
2020-10-26 04:00:00 15.1 6 Oeste 14 Norte 0 1018.9 -- 69
2020-10-26 03:00:00 15.8 5 Noroeste 18 Noroeste 0 1018.8 -- 69
2020-10-26 02:00:00 16.3 6 Noroeste 19 Noroeste 0 1018.6 -- 66
2020-10-26 01:00:00 16.7 6 Noroeste 22 Oeste 0 1018.5 -- 67
2020-10-26 00:00:00 17.4 8 Oeste 22 Oeste 0 1018.5 -- 71
2020-10-25 23:00:00 17.6 13 Oeste 24 Noroeste 0 1018.3 -- 70
2020-10-25 22:00:00 18 4 Noroeste 15 Noroeste 0 1018 -- 82
2020-10-25 21:00:00 18.1 6 Noroeste 29 Oeste 1.2 1017.7 -- 82
2020-10-25 20:00:00 19.3 14 Oeste 31 Sudoeste 0 1017.4 -- 76
2020-10-25 19:00:00 19 18 Sudoeste 36 Oeste 0 1016.8 -- 75
2020-10-25 18:00:00 19.7 23 Sudoeste 42 Sudoeste 0 1017.2 -- 71
2020-10-25 17:00:00 20.8 16 Oeste 35 Oeste 0 1017.7 -- 63
2020-10-25 16:00:00 21.1 20 Sudoeste 35 Sudoeste 0 1017.8 -- 61
2020-10-25 15:00:00 20.7 21 Sudoeste 36 Sudoeste 0 1018.6 -- 59
2020-10-25 14:00:00 20.7 12 Sudoeste 27 Sudoeste 0 1019.7 -- 56
2020-10-25 13:00:00 20.3 8 Sudoeste 19 Sudoeste 0 1020.7 -- 56
2020-10-25 12:00:00 21 6 Sudoeste 14 Sudoeste 0 1021.2 -- 58
2020-10-25 11:00:00 19 4 Sudoeste 8 Sudoeste 0 1021.6 -- 66
2020-10-25 10:00:00 16.4 0 Calma 3 Norte 0 1021.9 -- 76
2020-10-25 09:00:00 13.9 0 Calma 3 Norte 0 1021.4 -- 83
2020-10-25 08:00:00 11.5 0 Calma 3 Noroeste 0 1021.3 -- 82
2020-10-25 07:00:00 11.5 0 Calma 4 Oeste 0 1021.1 -- 82
2020-10-25 06:00:00 12.4 4 Norte 8 Norte 0 1021.4 -- 82
2020-10-25 05:00:00 12 0 Calma 6 Norte 0 1021.4 -- 80
2020-10-25 04:00:00 12.9 2 Nordeste 6 Norte 0 1021.9 -- 80
2020-10-25 03:00:00 13.4 0 Calma 6 Norte 0 1022.4 -- 79
2020-10-25 02:00:00 13.8 3 Oeste 8 Norte 0 1023 -- 73
2020-10-25 01:00:00 15.3 2 Norte 13 Noroeste 0 1023.9 -- 67
2020-10-25 00:00:00 16.3 7 Norte 15 Noroeste 0 1024.3 -- 64
2020-10-24 23:00:00 15.3 4 Noroeste 8 Noroeste 0 1023.8 -- 71
2020-10-24 22:00:00 16.3 4 Oeste 10 Oeste 0 1023.9 -- 67
2020-10-24 21:00:00 16.7 4 Sudoeste 10 Sudoeste 0 1023.9 -- 60
2020-10-24 20:00:00 17.7 6 Sudoeste 19 Sudoeste 0 1023.8 -- 54
2020-10-24 19:00:00 19.2 9 Sudoeste 20 Sudoeste 0 1023.8 -- 56
2020-10-24 18:00:00 20.3 10 Sudoeste 18 Sudoeste 0 1024.1 -- 51
2020-10-24 17:00:00 21 10 Sudoeste 17 Sur 0 1024.4 -- 45
2020-10-24 16:00:00 21.2 10 Sur 16 Sur 0 1024.6 -- 47
2020-10-24 15:00:00 21.1 8 Sudoeste 14 Sur 0 1025.4 -- 47
2020-10-24 14:00:00 21.3 7 Sur 13 Sur 0 1025.8 -- 46
2020-10-24 13:00:00 20.9 4 Sur 13 Sur 0 1026.4 -- 46
2020-10-24 12:00:00 18.4 2 Norte 11 Norte 0 1026.5 -- 52
2020-10-24 11:00:00 16.7 5 Norte 15 Noroeste 0 1026.5 -- 64
2020-10-24 10:00:00 14.7 3 Norte 11 Norte 0 1026 -- 71
2020-10-24 09:00:00 13.7 3 Nordeste 10 Norte 0 1025.4 -- 74
2020-10-24 08:00:00 13.8 4 Norte 11 Noroeste 0 1025.4 -- 74
2020-10-24 07:00:00 14.4 4 Norte 14 Noroeste 0 1025.2 -- 71
2020-10-24 06:00:00 14.7 6 Noroeste 17 Norte 0 1025.1 -- 67
2020-10-24 05:00:00 15.1 7 Noroeste 19 Norte 0 1025.3 -- 64
2020-10-24 04:00:00 15.3 8 Norte 20 Norte 0 1025.4 -- 61
2020-10-24 03:00:00 15.6 7 Norte 17 Noroeste 0 1025.5 -- 62
2020-10-24 02:00:00 15.8 4 Norte 14 Norte 0 1025.5 -- 62
2020-10-24 01:00:00 16.2 4 Norte 17 Norte 0 1025.6 -- 60
2020-10-24 00:00:00 16.9 6 Norte 19 Noroeste 0 1025.5 -- 57
2020-10-23 23:00:00 17 2 Norte 10 Norte 0 1024.9 -- 78
2020-10-23 22:00:00 17.4 0 Calma 9 Sudoeste 0 1024.4 -- 73
2020-10-23 21:00:00 18.5 4 Sudoeste 15 Sudoeste 0 1023.9 -- 71
2020-10-23 20:00:00 18.8 5 Sudoeste 17 Sur 0 1023.3 -- 66
2020-10-23 19:00:00 19.7 10 Sudoeste 19 Sudoeste 0 1023 -- 56
2020-10-23 18:00:00 21 10 Sudoeste 18 Sudoeste 0 1023 -- 54
2020-10-23 17:00:00 21.9 9 Sudoeste 16 Sur 0 1022.7 -- 52
2020-10-23 16:00:00 21.9 10 Sur 21 Sur 0 1022.6 -- 46
2020-10-23 15:00:00 22.6 9 Sur 19 Sur 0 1022.8 -- 49
2020-10-23 14:00:00 21.7 7 Sur 15 Sur 0 1023.2 -- 47
2020-10-23 13:00:00 21.4 8 Sur 16 Sudeste 0 1023.5 -- 52
2020-10-23 12:00:00 19.6 4 Sudeste 11 Sudeste 0 1023.2 -- 60
2020-10-23 11:00:00 16.5 5 Nordeste 9 Nordeste 0 1022.8 -- 76
2020-10-23 10:00:00 14.3 2 Norte 5 Oeste 0 1022 -- 82
2020-10-23 09:00:00 12.5 0 Calma 4 Norte 0 1020.8 -- 82
2020-10-23 08:00:00 12.4 0 Calma 5 Norte 0 1020.5 -- 82
2020-10-23 07:00:00 12.3 0 Calma 4 Norte 0 1020.1 -- 81
2020-10-23 06:00:00 12.6 2 Norte 4 Norte 0 1019.6 -- 81
2020-10-23 05:00:00 12.7 0 Calma 3 Noroeste 0 1019.4 -- 81
2020-10-23 04:00:00 12.9 0 Calma 3 Noroeste 0 1019.1 -- 80
2020-10-23 03:00:00 13.4 0 Calma 3 Noroeste 0 1018.9 -- 79
2020-10-23 02:00:00 13.9 0 Calma 3 Noroeste 0 1018.7 -- 78
2020-10-23 01:00:00 14.6 0 Calma 5 Norte 0 1018.2 -- 77
2020-10-23 00:00:00 15.5 0 Calma 9 Oeste 0 1017.8 -- 76
2020-10-22 23:00:00 16.3 6 Oeste 15 Oeste 0 1017 -- 73
2020-10-22 22:00:00 17.1 7 Oeste 19 Oeste 0 1016.3 -- 70
2020-10-22 21:00:00 18 10 Sudoeste 23 Sudoeste 0 1015.7 -- 70
2020-10-22 20:00:00 18.5 13 Sudoeste 27 Sudoeste 0 1014.6 -- 66
2020-10-22 19:00:00 19.5 14 Sudoeste 28 Sudoeste 0 1013.6 -- 59
2020-10-22 18:00:00 20.7 17 Sudoeste 31 Sudoeste 0 1012.9 -- 53
2020-10-22 17:00:00 21.7 18 Sudoeste 30 Sudoeste 0 1012.2 -- 50
2020-10-22 16:00:00 22 15 Sudoeste 23 Sudoeste 0 1011.9 -- 56
2020-10-22 15:00:00 21.3 13 Sudoeste 23 Sur 0 1012.2 -- 58
2020-10-22 14:00:00 21.5 7 Sur 12 Sudoeste 0.1 1012.4 -- 58
2020-10-22 13:00:00 21 0 Calma 8 Sudoeste 0 1012.5 -- 67
2020-10-22 12:00:00 19.1 5 Este 9 Sudeste 0 1012.6 -- 80
2020-10-22 11:00:00 18.1 2 Este 6 Nordeste 0 1012.4 -- 82
2020-10-22 10:00:00 17.2 0 Calma 7 Noroeste 0 1011.3 -- 82
2020-10-22 09:00:00 16.6 0 Calma 5 Noroeste 0 1010.6 -- 82
2020-10-22 08:00:00 16.8 0 Calma 5 Este 0 1010.1 -- 82
2020-10-22 07:00:00 16.7 0 Calma 6 Norte 0.1 1009.8 -- 82
2020-10-22 06:00:00 15.9 2 Norte 6 Noroeste 0 1009.7 -- 82
2020-10-22 05:00:00 15.6 2 Noroeste 4 Noroeste 0 1009.9 -- 81
2020-10-22 04:00:00 15.9 0 Calma 7 Sudeste 0 1009.8 -- 81
2020-10-22 03:00:00 16.9 0 Calma 5 Este 0 1010 -- 81
2020-10-22 02:00:00 16.9 0 Calma 5 Sudeste 0 1010.3 -- 81
2020-10-22 01:00:00 17.3 2 Nordeste 5 Este 0 1010.7 -- 81
2020-10-22 00:00:00 17.6 2 Este 5 Sudeste 0 1010.8 -- 81
2020-10-21 23:00:00 17.8 0 Calma 5 Este 0.1 1010.5 -- 81
2020-10-21 22:00:00 18 0 Calma 6 Sudeste 1.2 1010.1 -- 81
2020-10-21 21:00:00 17.9 4 Sur 14 Sudoeste 1 1009.9 -- 80
2020-10-21 20:00:00 17.8 8 Sudoeste 26 Oeste 3.4 1009.7 -- 80
2020-10-21 19:00:00 18.4 9 Sur 22 Sudoeste 2.4 1009.4 -- 79
2020-10-21 18:00:00 19.8 8 Sur 31 Sur 0.3 1009 -- 73
2020-10-21 17:00:00 22 13 Sur 26 Sur 0 1008.7 -- 54
2020-10-21 16:00:00 22.5 12 Sudoeste 21 Sudoeste 0 1009 -- 58
2020-10-21 15:00:00 23.2 10 Sudoeste 20 Sur 0 1009.2 -- 53
2020-10-21 14:00:00 22.8 11 Sur 18 Sur 0 1009.9 -- 55
2020-10-21 13:00:00 22.5 9 Sudoeste 17 Sudoeste 0 1010.1 -- 58
2020-10-21 12:00:00 21.6 8 Sudoeste 18 Sudoeste 0 1009.8 -- 64
2020-10-21 11:00:00 20.1 7 Sudoeste 13 Sudoeste 0 1009.6 -- 73
2020-10-21 10:00:00 17.7 7 Sudoeste 12 Sudoeste 0.1 1008.9 -- 82
2020-10-21 09:00:00 16.7 6 Sudoeste 12 Sudoeste 0 1008.2 -- 82
2020-10-21 08:00:00 16.8 7 Sudoeste 14 Sudoeste 0 1007.7 -- 82
2020-10-21 07:00:00 17.2 8 Sudoeste 13 Sudoeste 0 1007.2 -- 82
2020-10-21 06:00:00 16.9 7 Sudoeste 11 Sudoeste 0 1006.1 -- 82
2020-10-21 05:00:00 17.3 4 Sudoeste 17 Sudoeste 0 1006 -- 82
2020-10-21 04:00:00 18.3 13 Sudoeste 27 Sudoeste 1.4 1005.8 -- 82
2020-10-21 03:00:00 18.3 13 Sudoeste 29 Sudoeste 0.2 1005.9 -- 81
2020-10-21 02:00:00 18.3 11 Sudoeste 21 Sudoeste 0 1005.8 -- 80
2020-10-21 01:00:00 17.9 7 Oeste 30 Sudoeste 0 1005.8 -- 80
2020-10-21 00:00:00 17.8 0 Calma 8 Sudoeste 0 1005.5 -- 82
2020-10-20 23:00:00 17.7 6 Sudoeste 28 Sudoeste 0 1005.1 -- 81
2020-10-20 22:00:00 17.4 20 Sudoeste 37 Sudoeste 0 1003.3 -- 79
2020-10-20 21:00:00 18.3 7 Sudoeste 58 Noroeste 3.9 1000.7 -- 76
2020-10-20 20:00:00 20.3 22 Sur 53 Sur 3 997.8 -- 82
2020-10-20 19:00:00 19.8 34 Sudoeste 66 Sudoeste 5.7 1000.5 -- 82
2020-10-20 18:00:00 20.2 34 Sur 63 Sur 3.3 1000.3 -- 81
2020-10-20 17:00:00 20 28 Sur 51 Sur 1.4 1001.2 -- 79
2020-10-20 16:00:00 19.4 31 Sur 57 Sur 2.3 1002.8 -- 77
2020-10-20 15:00:00 20.4 23 Sur 41 Sur 0.9 1003.1 -- 76
2020-10-20 14:00:00 20.5 21 Sur 39 Sur 0.5 1004.8 -- 78
2020-10-20 13:00:00 20.7 21 Sur 40 Sur 0.5 1005.4 -- 78
2020-10-20 12:00:00 20.8 19 Sur 36 Sur 0 1006.4 -- 78
2020-10-20 11:00:00 21.1 18 Sur 35 Sur 0 1007.3 -- 80
2020-10-20 10:00:00 20.8 18 Sur 33 Sur 0 1007.5 -- 80
2020-10-20 09:00:00 20.7 21 Sur 42 Sur 0 1007.4 -0.4 81
2020-10-20 08:00:00 20.6 23 Sur 42 Sur 0.1 1007 -- 83
2020-10-20 07:00:00 20.2 23 Sur 40 Sur 0.6 1007.3 -- 84
2020-10-20 06:00:00 20.1 21 Sur 33 Sur 5.3 1007.8 -2.5 84
2020-10-20 05:00:00 20.5 18 Sur 35 Sur 0.8 1008.7 -1.8 84
2020-10-20 04:00:00 20.4 20 Sur 37 Sur 1 1009.7 -- 84
2020-10-20 03:00:00 20.3 19 Sur 33 Sur 3.5 1010.3 -1.4 84
2020-10-20 02:00:00 20.3 18 Sur 33 Sur 0 1010.5 -1.4 81
2020-10-20 01:00:00 20.4 15 Sur 26 Sur 0 1011 -- 82
2020-10-20 00:00:00 20.2 14 Sur 24 Sur 0 1011.7 -0.5 80
2020-10-19 23:00:00 20.3 14 Sur 23 Sur 0 1011.9 -0.5 80
2020-10-19 22:00:00 20.2 14 Sur 23 Sur 0 1011.9 -- 80
2020-10-19 21:00:00 20.3 12 Sur 20 Sur 0 1012.2 -- 80
2020-10-19 20:00:00 20.1 9 Sur 23 Sur 0 1012.4 -0.6 78
2020-10-19 19:00:00 20.7 15 Sur 28 Sudeste 0 1012.4 -- 75
2020-10-19 18:00:00 21.1 14 Sur 28 Sur 0 1012.9 -- 70
2020-10-19 17:00:00 21.3 16 Sur 30 Sur 0 1013 -- 67
2020-10-19 16:00:00 21.7 15 Sudeste 30 Sur 0 1013.1 -- 66
2020-10-19 15:00:00 21.7 16 Sur 32 Sur 0 1014.2 -- 64
2020-10-19 14:00:00 22.7 14 Sur 27 Sur 0 1014.6 -- 58
2020-10-19 13:00:00 22 12 Sur 24 Sur 0 1015.4 -- 58
2020-10-19 12:00:00 21.3 10 Sudeste 22 Sur 0 1015.1 -- 55
2020-10-19 11:00:00 19.1 4 Este 10 Este 0 1014.7 -- 49
2020-10-19 10:00:00 15.4 4 Nordeste 7 Nordeste 0 1014.5 -- 55
2020-10-19 09:00:00 12.6 0 Calma 6 Este 0 1014 -- 68
2020-10-19 08:00:00 12.9 3 Nordeste 6 Nordeste 0 1013.7 -- 68
2020-10-19 07:00:00 13.5 4 Nordeste 8 Nordeste 0 1013.7 -- 69
2020-10-19 06:00:00 13.5 0 Calma 4 Nordeste 0 1014 -- 80
2020-10-19 05:00:00 13.9 2 Nordeste 4 Nordeste 0 1014.3 -- 81
2020-10-19 04:00:00 14.8 3 Nordeste 4 Nordeste 0 1014.7 -- 79
2020-10-19 03:00:00 15.4 0 Calma 6 Sudeste 0 1014.7 -- 76
2020-10-19 02:00:00 15.9 4 Este 8 Este 0 1014.4 -- 74
2020-10-19 01:00:00 15.6 4 Este 7 Sudeste 0 1014.9 -- 73
2020-10-19 00:00:00 14.8 0 Calma 4 Este 0 1015.4 -- 73
2020-10-18 23:00:00 15.5 3 Nordeste 5 Nordeste 0 1015.3 -- 69
2020-10-18 22:00:00 15.5 2 Nordeste 3 Nordeste 0 1015.4 -- 62
2020-10-18 21:00:00 16.7 0 Calma 2 Nordeste 0 1015.2 -- 56
2020-10-18 20:00:00 18.6 0 Calma 6 Sudoeste 0 1014.9 -- 50
2020-10-18 19:00:00 21 3 Sudoeste 8 Sur 0 1014.5 -- 40
2020-10-18 18:00:00 22.4 4 Sudoeste 10 Sur 0 1015 -- 36
2020-10-18 17:00:00 23.2 7 Sur 17 Sur 0 1015.3 -- 33
2020-10-18 16:00:00 23.9 7 Sudeste 17 Sudeste 0 1015.7 -- 33
2020-10-18 15:00:00 23.7 10 Sudeste 22 Este 0 1016.5 -- 33
2020-10-18 14:00:00 23.2 8 Este 22 Este 0 1016.8 -- 33
2020-10-18 13:00:00 22 6 Este 14 Este 0 1017.6 -- 38
2020-10-18 12:00:00 19.7 6 Este 13 Este 0 1018 -- 42
2020-10-18 11:00:00 17.3 4 Nordeste 10 Noroeste 0 1017.9 -- 48
2020-10-18 10:00:00 14.1 0 Calma 6 Nordeste 0 1017.3 -- 65
2020-10-18 09:00:00 10.7 2 Norte 6 Este 0 1016.4 -- 79
2020-10-18 08:00:00 11.4 3 Norte 10 Este 0 1016.4 -- 80
2020-10-18 07:00:00 12.8 6 Este 11 Este 0 1015.9 -- 75
2020-10-18 06:00:00 13.5 5 Norte 10 Noroeste 0 1016.2 -- 75
2020-10-18 05:00:00 13 4 Norte 9 Norte 0 1016.1 -- 78
2020-10-18 04:00:00 11.5 0 Calma 6 Nordeste 0 1016.6 -- 82
2020-10-18 03:00:00 12.5 3 Nordeste 5 Nordeste 0 1017 -- 81
2020-10-18 02:00:00 12.3 0 Calma 3 Noroeste 0 1017.4 -- 80
2020-10-18 01:00:00 12.9 0 Calma 5 Norte 0 1017.2 -- 81
2020-10-18 00:00:00 13.7 2 Norte 7 Norte 0 1017.3 -- 82
2020-10-17 23:00:00 14.4 0 Calma 3 Este 0 1017 -- 81
2020-10-17 22:00:00 15.4 0 Calma 4 Sudoeste 0 1016.9 -- 77
2020-10-17 21:00:00 16.4 0 Calma 6 Oeste 0 1016.9 -- 72
2020-10-17 20:00:00 17.8 2 Sudoeste 8 Sur 0 1016.4 -- 66
2020-10-17 19:00:00 19.3 5 Sur 12 Sur 0 1016.2 -- 61
2020-10-17 18:00:00 20.3 8 Sur 15 Sur 0 1016.2 -- 53
2020-10-17 17:00:00 20.8 9 Sur 15 Sur 0 1016.1 -- 50
2020-10-17 16:00:00 21.2 10 Sur 17 Sur 0 1016.3 -- 44
2020-10-17 15:00:00 21.8 10 Sur 17 Sur 0 1016.7 -- 42
2020-10-17 14:00:00 22.8 9 Sudoeste 16 Sudoeste 0 1017.2 -- 38
2020-10-17 13:00:00 22.5 4 Oeste 10 Oeste 0 1017.5 -- 35
2020-10-17 12:00:00 19.2 4 Norte 9 Nordeste 0 1017.5 -- 42
2020-10-17 11:00:00 16.8 3 Nordeste 8 Norte 0 1017.5 -- 56
2020-10-17 10:00:00 13.6 0 Calma 7 Nordeste 0 1017.1 -- 70
2020-10-17 09:00:00 10 3 Este 4 Este 0 1016.5 -- 82
2020-10-17 08:00:00 10.3 2 Nordeste 4 Este 0 1016.1 -- 81
2020-10-17 07:00:00 11 0 Calma 8 Norte 0 1015.7 -- 77
2020-10-17 06:00:00 11.3 3 Norte 8 Norte 0 1015.6 -- 78
2020-10-17 05:00:00 11.9 3 Norte 8 Norte 0 1015.5 -- 73
2020-10-17 04:00:00 12 3 Norte 6 Noroeste 0 1016 -- 71
2020-10-17 03:00:00 13.6 3 Noroeste 8 Norte 0 1016 -- 65
2020-10-17 02:00:00 14.3 3 Norte 11 Noroeste 0 1016.2 -- 62
2020-10-17 01:00:00 12.9 2 Noroeste 8 Norte 0 1016.4 -- 64
2020-10-17 00:00:00 13.9 0 Calma 10 Noroeste 0 1016.5 -- 62
2020-10-16 23:00:00 14.2 3 Oeste 5 Oeste 0 1016.5 -- 65
2020-10-16 22:00:00 15.1 4 Oeste 8 Oeste 0 1016.4 -- 66
2020-10-16 21:00:00 16.3 0 Calma 13 Oeste 0 1016 0.1 68
2020-10-16 20:00:00 17.6 7 Sudoeste 16 Sudoeste 0 1015.7 -- 67
2020-10-16 19:00:00 19.2 10 Sudoeste 20 Sudoeste 0 1015.6 -- 58
2020-10-16 18:00:00 20.3 9 Sudoeste 19 Sudoeste 0 1015.9 -- 57
2020-10-16 17:00:00 20.7 10 Sudoeste 18 Sudoeste 0 1015.9 -- 58
2020-10-16 16:00:00 20.6 10 Sur 18 Sur 0 1016 -- 53
2020-10-16 15:00:00 22.3 10 Sur 19 Sur 0 1016.6 -- 44
2020-10-16 14:00:00 -- -- -- -- -- -- -- -- --
2020-10-16 13:00:00 21.5 4 Este 11 Este 0 1017.8 -- 40
2020-10-16 12:00:00 19.2 5 Nordeste 15 Noroeste 0 1018 -- 45
2020-10-16 11:00:00 15.6 8 Norte 17 Norte 0 1018 1.8 59
2020-10-16 10:00:00 13.5 6 Norte 16 Norte 0 1017.2 1.2 65
2020-10-16 09:00:00 12.3 2 Noroeste 17 Norte 0 1016.6 0.7 67
2020-10-16 08:00:00 13 6 Norte 16 Norte 0 1016.2 -- 64
2020-10-16 07:00:00 13.1 5 Norte 16 Norte 0 1016 -- 62
2020-10-16 06:00:00 13.7 6 Norte 17 Norte 0 1015.9 -- 60
2020-10-16 05:00:00 14.4 9 Norte 21 Norte 0 1016.1 -- 58
2020-10-16 04:00:00 14.8 9 Noroeste 22 Noroeste 0 1016.3 -- 55
2020-10-16 03:00:00 15.2 9 Norte 21 Noroeste 0 1016.7 -- 52
2020-10-16 02:00:00 15.9 11 Noroeste 22 Norte 0 1016.7 -- 51
2020-10-16 01:00:00 16.4 10 Noroeste 24 Noroeste 0 1016.8 -- 49
2020-10-16 00:00:00 17.1 8 Noroeste 21 Noroeste 0 1016.9 -- 48
2020-10-15 23:00:00 17.5 9 Noroeste 17 Noroeste 0 1016.7 -- 47
2020-10-15 22:00:00 16.3 3 Oeste 11 Oeste 0 1016.3 -- 70
2020-10-15 21:00:00 17.2 7 Oeste 22 Sudoeste 0 1016 -- 70
2020-10-15 20:00:00 18.2 13 Sudoeste 25 Oeste 0 1015.5 -- 63
2020-10-15 19:00:00 19.6 13 Sudoeste 26 Sudoeste 0 1015.3 -- 49
2020-10-15 18:00:00 21.7 14 Sudoeste 28 Sudoeste 0 1015.3 -1.2 43
2020-10-15 17:00:00 22.7 13 Sudoeste 27 Sudoeste 0 1015.5 -- 43
2020-10-15 16:00:00 23.2 12 Sudoeste 24 Sudoeste 0 1015.8 -- 39
2020-10-15 15:00:00 22.4 6 Noroeste 16 Norte 0 1016.5 -- 32
2020-10-15 14:00:00 22.1 7 Noroeste 18 Noroeste 0 1017.3 -- 36
2020-10-15 13:00:00 20.4 7 Noroeste 20 Noroeste 0 1017.8 -- 43
2020-10-15 12:00:00 18 10 Noroeste 26 Norte 0 1018.1 -- 52
2020-10-15 11:00:00 15.8 13 Norte 27 Noroeste 0 1018.2 -- 61
2020-10-15 10:00:00 14 13 Norte 27 Noroeste 0 1017.7 -- 67
2020-10-15 09:00:00 12.9 12 Norte 27 Noroeste 0 1017.1 -- 71
2020-10-15 08:00:00 12.8 13 Norte 30 Norte 0 1016.8 -- 68
2020-10-15 07:00:00 13 13 Norte 24 Noroeste 0 1016.6 -- 66
2020-10-15 06:00:00 13.3 10 Noroeste 27 Noroeste 0 1016.5 -- 65
2020-10-15 05:00:00 13.7 8 Noroeste 28 Noroeste 0 1016.5 -- 62
2020-10-15 04:00:00 14.4 13 Noroeste 32 Noroeste 0 1016.9 -- 59
2020-10-15 03:00:00 14.8 8 Noroeste 23 Norte 0 1016.8 -- 55
2020-10-15 02:00:00 15.6 10 Noroeste 24 Noroeste 0 1017 -- 51
2020-10-15 01:00:00 16.4 11 Noroeste 30 Norte 0 1016.8 -- 46
2020-10-15 00:00:00 17.4 11 Noroeste 24 Noroeste 0 1016.9 -- 41
2020-10-14 23:00:00 18.4 8 Noroeste 18 Noroeste 0 1016.6 -- 38
2020-10-14 22:00:00 19.1 5 Noroeste 18 Noroeste 0 1015.7 -- 35
2020-10-14 21:00:00 20.4 8 Noroeste 22 Norte 0 1015 -- 32
2020-10-14 20:00:00 21.5 9 Noroeste 25 Noroeste 0 1014.3 -- 30
2020-10-14 19:00:00 22.6 9 Norte 29 Noroeste 0 1014 -- 29
2020-10-14 18:00:00 23.6 10 Noroeste 30 Noroeste 0 1013.6 -- 29
2020-10-14 17:00:00 24.4 10 Noroeste 31 Noroeste 0 1013.5 -- 29
2020-10-14 16:00:00 23.8 12 Noroeste 35 Norte 0 1013.7 -- 30
2020-10-14 15:00:00 22.9 12 Noroeste 30 Norte 0 1014.2 -- 35
2020-10-14 14:00:00 21.3 10 Norte 24 Oeste 0 1015.1 -- 41
2020-10-14 13:00:00 19.8 11 Noroeste 26 Norte 0 1015.9 -- 46
2020-10-14 12:00:00 18.2 9 Norte 26 Norte 0 1015.7 -- 51
2020-10-14 11:00:00 16.6 9 Norte 34 Norte 0 1015.7 -- 56
2020-10-14 10:00:00 15.2 17 Norte 37 Norte 0 1015.4 -- 59
2020-10-14 09:00:00 14.6 11 Norte 33 Noroeste 0 1014.2 -- 61
2020-10-14 08:00:00 14.7 13 Noroeste 32 Noroeste 0 1013.6 -- 61
2020-10-14 07:00:00 15 6 Noroeste 36 Norte 0 1013.5 -- 61
2020-10-14 06:00:00 15.2 15 Noroeste 37 Norte 0 1013.9 -- 61
2020-10-14 05:00:00 15 12 Noroeste 39 Noroeste 0 1014.2 -- 61
2020-10-14 04:00:00 15.2 16 Norte 39 Norte 0 1014.6 -- 61
2020-10-14 03:00:00 15.8 17 Norte 33 Noroeste 0 1014.8 -- 60
2020-10-14 02:00:00 17.7 19 Norte 46 Noroeste 0 1014.7 -- 61
2020-10-14 01:00:00 19.2 17 Noroeste 33 Noroeste 0 1014.3 -- 60
2020-10-14 00:00:00 20.8 10 Noroeste 30 Noroeste 0 1014.7 -- 56
2020-10-13 23:00:00 22.5 10 Noroeste 24 Noroeste 0 1014.3 -- 51
2020-10-13 22:00:00 18.9 0 Calma 14 Oeste 0 1014.2 -- 60
2020-10-13 21:00:00 19.7 7 Sudoeste 18 Oeste 0 1014.1 -- 56
2020-10-13 20:00:00 20.4 10 Sudoeste 22 Sudoeste 0 1013.9 -- 47
2020-10-13 19:00:00 22.3 12 Sudoeste 23 Sudoeste 0 1014 -- 37
2020-10-13 18:00:00 23.5 12 Sudoeste 24 Oeste 0 1014.4 -- 36
2020-10-13 17:00:00 25.1 14 Sudoeste 23 Sudoeste 0 1014.9 -- 33
2020-10-13 16:00:00 24.8 10 Sudoeste 16 Sudoeste 0 1015.6 -- 31
2020-10-13 15:00:00 24.9 10 Sudoeste 17 Sur 0 1016.4 -- 27
2020-10-13 14:00:00 25.2 10 Sudoeste 15 Sur 0 1017.6 -- 26
2020-10-13 13:00:00 24.8 3 Oeste 10 Oeste 0 1018.1 -- 26
2020-10-13 12:00:00 21.6 5 Norte 14 Noroeste 0 1018.5 0.4 32
2020-10-13 11:00:00 18.3 7 Norte 19 Noroeste 0 1018.8 -- 35
2020-10-13 10:00:00 16.3 6 Norte 17 Noroeste 0 1018.5 0.9 38
2020-10-13 09:00:00 14.3 4 Norte 10 Norte 0 1018.1 -- 39
2020-10-13 08:00:00 14.8 3 Norte 13 Norte 0 1017.9 -- 37
2020-10-13 07:00:00 15.5 5 Noroeste 12 Norte 0 1017.6 -- 36
2020-10-13 06:00:00 16.1 4 Norte 13 Noroeste 0 1017.6 -1.2 35
2020-10-13 05:00:00 16.4 6 Norte 15 Norte 0 1017.8 -- 36
2020-10-13 04:00:00 -- -- -- -- -- -- -- -- --
2020-10-13 03:00:00 17.1 5 Norte 12 Noroeste 0 1018.8 -0.5 35
2020-10-13 02:00:00 16.1 0 Calma 11 Norte 0 1019 -- 35
2020-10-13 01:00:00 -- -- -- -- -- -- -- -- --
2020-10-13 00:00:00 19.6 3 Norte 14 Noroeste 0 1019.3 0.2 31
2020-10-12 23:00:00 20.4 5 Noroeste 15 Norte 0 1019.3 -- 31
2020-10-12 22:00:00 19.5 5 Noroeste 12 Noroeste 0 1018.9 0.5 35
2020-10-12 21:00:00 19.6 3 Oeste 7 Oeste 0 1019.1 -- 32
2020-10-12 20:00:00 21.4 4 Oeste 11 Oeste 0 1018.6 -0.1 31
2020-10-12 19:00:00 23.6 6 Sudoeste 13 Sudoeste 0 1018.4 -- 28
2020-10-12 18:00:00 25.4 8 Sur 16 Sur 0 1018.4 -1.9 23
2020-10-12 17:00:00 26.7 8 Sur 18 Sur 0 1018.7 -- 21
2020-10-12 16:00:00 26.7 10 Sudeste 20 Este 0 1019.4 -- 20
2020-10-12 15:00:00 26.8 9 Este 24 Este 0 1020.3 -1.6 20
2020-10-12 14:00:00 25.4 12 Este 25 Este 0 1021.3 -- 23
2020-10-12 13:00:00 24 12 Este 30 Este 0 1021.7 -0.1 25
2020-10-12 12:00:00 22.6 14 Este 29 Este 0 1021.9 -- 27
2020-10-12 11:00:00 20.9 12 Este 27 Este 0 1021.9 -- 30
2020-10-12 10:00:00 17.1 2 Noroeste 6 Noroeste 0 1021.8 -- 49
2020-10-12 09:00:00 12.8 0 Calma 6 Noroeste 0 1021.2 -- 52
2020-10-12 08:00:00 13.8 0 Calma 9 Norte 0 1020.8 1 48
2020-10-12 07:00:00 13.6 0 Calma 6 Nordeste 0 1020.3 -- 50
2020-10-12 06:00:00 13.9 3 Nordeste 10 Nordeste 0 1020 0.1 55
2020-10-12 05:00:00 14.1 0 Calma 8 Nordeste 0 1019.8 -- 61
2020-10-12 04:00:00 -- -- -- -- -- -- -- -- --
2020-10-12 03:00:00 16 0 Calma 6 Sudeste 0 1019.9 -- 72
2020-10-12 02:00:00 16.5 2 Norte 5 Noroeste 0 1019.5 0.9 79
2020-10-12 01:00:00 17.3 0 Calma 9 Nordeste 0 1019.4 -- 78
2020-10-12 00:00:00 18.4 4 Nordeste 12 Este 0 1019.2 -- 79
2020-10-11 23:00:00 18.3 0 Calma 6 Sur 0 1018.6 0.3 79
2020-10-11 22:00:00 19.3 4 Sudoeste 8 Oeste 0 1018.5 -- 75
2020-10-11 21:00:00 -- -- -- -- -- -- -- -- --
2020-10-11 20:00:00 -- -- -- -- -- -- -- -- --
2020-10-11 19:00:00 23.1 8 Sudoeste 16 Sudoeste 0 1018.2 -- 63
2020-10-11 18:00:00 23.8 10 Sudoeste 19 Sudoeste 0 1018.4 -0.6 61
2020-10-11 17:00:00 23.6 11 Sudoeste 20 Sur 0 1018.5 -- 58
2020-10-11 16:00:00 24.4 11 Sur 19 Sur 0 1018.8 -- 50
2020-10-11 15:00:00 24.2 11 Sudeste 20 Sudeste 0 1019 -- 44
2020-10-11 14:00:00 24.9 9 Sudeste 17 Sudeste 0 1019.6 -- 48
2020-10-11 13:00:00 26.1 7 Sur 13 Sudeste 0 1019.7 -- 38
2020-10-11 12:00:00 24.3 5 Norte 14 Norte 0 1019.8 -- 37
2020-10-11 11:00:00 21.9 4 Norte 13 Noroeste 0 1019.7 -- 42
2020-10-11 10:00:00 19.5 4 Norte 12 Norte 0 1019.3 -- 53
2020-10-11 09:00:00 15.6 0 Calma 8 Noroeste 0 1018.6 -- 69
2020-10-11 08:00:00 15.9 0 Calma 6 Norte 0 1018.3 -- 67
2020-10-11 07:00:00 18.4 0 Calma 14 Noroeste 0 1018 -- 57
2020-10-11 06:00:00 19.1 9 Noroeste 16 Norte 0 1017.6 -- 57
2020-10-11 05:00:00 17.3 2 Norte 9 Noroeste 0 1017.6 -- 72
2020-10-11 04:00:00 16.1 0 Calma 2 Sur 0 1017.6 -- 82
2020-10-11 03:00:00 16.6 0 Calma 3 Noroeste 0 1018 -- 80
2020-10-11 02:00:00 17.4 0 Calma 6 Oeste 0 1018.3 -- 82
2020-10-11 01:00:00 18.1 4 Oeste 6 Noroeste 0 1018.6 -- 82
2020-10-11 00:00:00 18.3 3 Sudoeste 6 Oeste 0 1018.7 -- 80
2020-10-10 23:00:00 19.2 4 Oeste 8 Oeste 0 1018.4 -- 79
2020-10-10 22:00:00 19.8 5 Sudoeste 15 Sudoeste 0 1018.2 -- 75
2020-10-10 21:00:00 20.7 8 Sudoeste 16 Sudoeste 0 1018.2 -- 73
2020-10-10 20:00:00 21.8 8 Sudoeste 18 Sudoeste 0 1018.1 -- 66
2020-10-10 19:00:00 23.2 10 Sudoeste 17 Sudoeste 0 1018.1 -- 61
2020-10-10 18:00:00 24 11 Sudoeste 20 Sudoeste 0 1018.3 -- 56
2020-10-10 17:00:00 24 11 Sudoeste 18 Sudoeste 0 1018.6 -- 52
2020-10-10 16:00:00 24.4 10 Sudoeste 17 Sur 0 1018.9 -- 49
2020-10-10 15:00:00 24.6 9 Sur 15 Sur 0 1019.8 -- 45
2020-10-10 14:00:00 26.3 5 Sur 13 Sur 0 1020.3 -- 41
2020-10-10 13:00:00 25.9 6 Sur 12 Sur 0 1020.4 -- 42
2020-10-10 12:00:00 23.4 2 Norte 13 Noroeste 0 1020.3 -- 49
2020-10-10 11:00:00 20.7 3 Norte 14 Noroeste 0 1020.4 -- 59
2020-10-10 10:00:00 18.6 5 Norte 15 Norte 0 1020 -- 65
2020-10-10 09:00:00 17.6 3 Norte 16 Nordeste 0 1019.5 -- 68
2020-10-10 08:00:00 17.6 4 Norte 16 Norte 0 1019.2 -- 66
2020-10-10 07:00:00 18.4 4 Norte 16 Norte 0 1018.9 -- 63
2020-10-10 06:00:00 19.3 6 Norte 19 Noroeste 0 1018.5 -- 59
2020-10-10 05:00:00 20.1 8 Norte 22 Noroeste 0 1018.5 -- 55
2020-10-10 04:00:00 20.7 9 Norte 23 Noroeste 0 1018.7 -- 50
2020-10-10 03:00:00 21.3 6 Norte 17 Norte 0 1018.7 -- 47
2020-10-10 02:00:00 21 7 Noroeste 18 Norte 0 1018.9 -- 47
2020-10-10 01:00:00 17.4 0 Calma 7 Noroeste 0 1019.2 -- 73
2020-10-10 00:00:00 18.3 3 Noroeste 8 Noroeste 0 1019.3 -- 73
2020-10-09 23:00:00 18.9 0 Calma 3 Oeste 0 1019.2 -- 72
2020-10-09 22:00:00 20 0 Calma 6 Oeste 0 1019.1 -- 66
2020-10-09 21:00:00 20.8 3 Oeste 9 Sudoeste 0 1019.1 -- 62
2020-10-09 20:00:00 22.3 5 Sudoeste 14 Sudoeste 0 1018.8 -- 52
2020-10-09 19:00:00 24.4 7 Sudoeste 16 Sudoeste 0 1018.9 -- 49
2020-10-09 18:00:00 24.9 10 Sudoeste 17 Sudoeste 0 1018.9 -- 49
2020-10-09 17:00:00 25.2 10 Sudoeste 18 Sur 0 1019.2 -- 47
2020-10-09 16:00:00 25.5 10 Sur 18 Sur 0 1019.2 -- 44
2020-10-09 15:00:00 26.2 9 Sur 18 Sur 0 1019.9 -- 41
2020-10-09 14:00:00 24.5 8 Sudeste 16 Sudeste 0 1020.6 -- 41
2020-10-09 13:00:00 25.3 6 Sudeste 13 Este 0 1020.8 -- 41
2020-10-09 12:00:00 24.6 3 Norte 11 Este 0 1020.7 -- 46
2020-10-09 11:00:00 22.3 3 Norte 12 Noroeste 0 1020.7 -- 54
2020-10-09 10:00:00 20.3 4 Nordeste 13 Norte 0 1020.1 -- 59
2020-10-09 09:00:00 18.8 0 Calma 10 Norte 0 1019.6 -- 60
2020-10-09 08:00:00 18.5 4 Norte 13 Noroeste 0 1019.2 -- 60
2020-10-09 07:00:00 19.3 5 Norte 12 Noroeste 0 1018.8 -- 57
2020-10-09 06:00:00 17.8 3 Norte 9 Noroeste 0 1018.8 -- 60
2020-10-09 05:00:00 18.2 4 Noroeste 8 Norte 0 1019.2 -- 57
2020-10-09 04:00:00 17.9 3 Norte 9 Norte 0 1019.5 -- 59
2020-10-09 03:00:00 18.2 2 Norte 9 Norte 0 1019.5 -- 57
2020-10-09 02:00:00 17.9 3 Oeste 4 Oeste 0 1019.7 -- 57
2020-10-09 01:00:00 19.2 0 Calma 5 Norte 0 1019.9 -- 50
2020-10-09 00:00:00 20.9 2 Norte 10 Noroeste 0 1020.1 -- 46
2020-10-08 23:00:00 21.5 5 Norte 11 Norte 0 1019.8 -- 47
2020-10-08 22:00:00 21.7 2 Oeste 9 Oeste 0 1019.4 -- 43
2020-10-08 21:00:00 22.8 5 Sur 8 Sur 0 1018.8 -- 40
2020-10-08 20:00:00 25.1 0 Calma 7 Sudoeste 0 1018.7 -- 37
2020-10-08 19:00:00 28.1 4 Sudoeste 10 Sudoeste 0 1018.6 -- 32
2020-10-08 18:00:00 29.1 4 Sudoeste 10 Sur 0 1018.7 -- 31
2020-10-08 17:00:00 29.4 6 Sur 13 Sudeste 0 1018.5 -- 30
2020-10-08 16:00:00 30 5 Sudoeste 12 Oeste 0 1018.9 -- 31
2020-10-08 15:00:00 28.1 7 Sur 12 Sur 0 1019.5 -- 33
2020-10-08 14:00:00 28.9 6 Sur 13 Sudeste 0 1019.7 -- 32
2020-10-08 13:00:00 27.4 6 Sudeste 13 Sudeste 0 1020.1 -- 34
2020-10-08 12:00:00 26.7 0 Calma 7 Nordeste 0 1019.9 -- 36
2020-10-08 11:00:00 23.8 3 Norte 7 Norte 0 1019.9 -- 41
2020-10-08 10:00:00 21 2 Norte 7 Norte 0 1019.6 -- 48
2020-10-08 09:00:00 18.6 0 Calma 9 Norte 0 1019.1 -- 50
2020-10-08 08:00:00 18.9 2 Nordeste 8 Norte 0 1018.9 -- 49
2020-10-08 07:00:00 18.8 2 Nordeste 9 Norte 0 1018.6 -- 48
2020-10-08 06:00:00 19.9 3 Nordeste 8 Noroeste 0 1018.2 -- 45
2020-10-08 05:00:00 19.9 3 Norte 8 Norte 0 1018.1 -- 46
2020-10-08 04:00:00 19.6 2 Nordeste 9 Este 0 1018.3 -- 47
2020-10-08 03:00:00 21.6 3 Este 14 Noroeste 0 1018.2 -- 41
2020-10-08 02:00:00 22.7 5 Norte 15 Norte 0 1018.2 -- 40
2020-10-08 01:00:00 21.8 3 Norte 11 Noroeste 0 1018.5 -- 43
2020-10-08 00:00:00 23.2 5 Norte 12 Norte 0 1018.9 -- 43
2020-10-07 23:00:00 23.1 5 Noroeste 11 Noroeste 0 1018.7 -- 47
2020-10-07 22:00:00 23.3 4 Noroeste 9 Noroeste 0 1018.5 -- 49
2020-10-07 21:00:00 24 2 Oeste 7 Oeste 0 1018.3 -- 45
2020-10-07 20:00:00 24.7 4 Oeste 12 Sudoeste 0 1018.2 -- 44
2020-10-07 19:00:00 26.3 6 Sudoeste 14 Sur 0 1017.9 -- 41
2020-10-07 18:00:00 29.2 8 Sudoeste 14 Oeste 0 1017.6 -- 34
2020-10-07 17:00:00 30.7 8 Sur 14 Sur 0 1018.1 -- 32
2020-10-07 16:00:00 30.9 9 Sudoeste 14 Sudoeste 0 1018.5 -- 33
2020-10-07 15:00:00 31 7 Sur 13 Sur 0 1019.2 -- 33
2020-10-07 14:00:00 29.8 2 Norte 11 Noroeste 0 1020.4 -- 36
2020-10-07 13:00:00 26.9 4 Noroeste 17 Noroeste 0 1021.1 -- 44
2020-10-07 12:00:00 24 5 Norte 18 Nordeste 0 1021.4 -- 53
2020-10-07 11:00:00 21.7 7 Norte 20 Norte 0 1021.1 -- 62
2020-10-07 10:00:00 19.2 9 Norte 27 Norte 0 1020.8 -- 72
2020-10-07 09:00:00 18.3 7 Norte 19 Norte 0 1020.3 -- 73
2020-10-07 08:00:00 18.9 7 Norte 23 Noroeste 0 1020 -- 68
2020-10-07 07:00:00 19.5 9 Noroeste 22 Noroeste 0 1019.8 -- 65
2020-10-07 06:00:00 20.1 9 Norte 24 Norte 0 1019.7 -- 61
2020-10-07 05:00:00 20.8 8 Norte 21 Noroeste 0 1019.6 -- 59
2020-10-07 04:00:00 21.2 8 Noroeste 20 Norte 0 1019.9 -- 57
2020-10-07 03:00:00 21.6 6 Norte 15 Noroeste 0 1020.2 -- 56
2020-10-07 02:00:00 22.3 5 Noroeste 17 Norte 0 1020.7 -- 53
2020-10-07 01:00:00 22.5 4 Norte 13 Norte 0 1021 -- 53
2020-10-07 00:00:00 20.1 0 Calma 4 Noroeste 0 1020.8 -- 65
2020-10-06 23:00:00 19.1 0 Calma 5 Oeste 0 1020.7 -- 64
2020-10-06 22:00:00 19.9 3 Noroeste 5 Sudoeste 0 1020.3 -- 60
2020-10-06 21:00:00 21.5 0 Calma 13 Sudoeste 0 1020.1 -- 53
2020-10-06 20:00:00 22 8 Oeste 21 Oeste 0 1019.8 -- 49
2020-10-06 19:00:00 23.5 12 Oeste 25 Oeste 0 1020 -- 45
2020-10-06 18:00:00 24.6 15 Sudoeste 26 Sudoeste 0 1020 -- 47
2020-10-06 17:00:00 24.8 12 Sudoeste 21 Sur 0 1020.1 -- 43
2020-10-06 16:00:00 25.6 13 Sur 23 Sur 0 1020.8 -- 40
2020-10-06 15:00:00 27.4 7 Noroeste 19 Noroeste 0 1021.6 -- 39
2020-10-06 14:00:00 26.3 8 Noroeste 20 Noroeste 0 1022.4 -- 42
2020-10-06 13:00:00 24.5 7 Noroeste 19 Nordeste 0 1023 -- 46
2020-10-06 12:00:00 23.2 8 Norte 23 Noroeste 0 1023.2 -- 53
2020-10-06 11:00:00 20.5 8 Norte 23 Noroeste 0 1022.9 -- 63
2020-10-06 10:00:00 19.2 6 Norte 20 Noroeste 0 1022.4 -- 69
2020-10-06 09:00:00 17.5 6 Noroeste 17 Norte 0 1021.6 -- 75
2020-10-06 08:00:00 17.4 7 Noroeste 16 Noroeste 0 1021.4 -- 73
2020-10-06 07:00:00 17.3 5 Norte 16 Noroeste 0 1021.6 -- 72
2020-10-06 06:00:00 17.6 6 Norte 17 Norte 0 1021.3 -- 70
2020-10-06 05:00:00 17.8 6 Norte 19 Norte 0 1021.2 -- 68
2020-10-06 04:00:00 18 5 Norte 20 Norte 0 1021.4 -- 66
2020-10-06 03:00:00 18.4 9 Norte 23 Norte 0 1021.4 -- 64
2020-10-06 02:00:00 18.9 10 Noroeste 23 Norte 0 1021.5 -- 61
2020-10-06 01:00:00 19.4 8 Noroeste 22 Noroeste 0 1021.5 -- 57
2020-10-06 00:00:00 20.3 10 Noroeste 23 Noroeste 0 1021.5 -- 51
2020-10-05 23:00:00 21 4 Norte 13 Noroeste 0 1020.8 -- 46
2020-10-05 22:00:00 21.9 3 Norte 20 Norte 0 1020.3 -- 43
2020-10-05 21:00:00 22.8 5 Norte 18 Noroeste 0 1019.7 -- 40
2020-10-05 20:00:00 23.9 5 Norte 22 Norte 0 1019.2 -- 37
2020-10-05 19:00:00 25.5 6 Norte 22 Norte 0 1018.4 -- 34
2020-10-05 18:00:00 26.2 5 Norte 24 Nordeste 0 1018.6 -- 33
2020-10-05 17:00:00 25.5 8 Norte 28 Norte 0 1018.7 -- 33
2020-10-05 16:00:00 24.9 14 Noroeste 31 Norte 0 1018.7 -- 34
2020-10-05 15:00:00 24.4 9 Norte 31 Noroeste 0 1019.2 -1.2 35
2020-10-05 14:00:00 23.8 7 Norte 28 Nordeste 0 1019.9 0 36
2020-10-05 13:00:00 22.6 6 Norte 27 Norte 0 1020.2 1 39
2020-10-05 12:00:00 20.7 8 Noroeste 24 Noroeste 0 1020.4 -- 48
2020-10-05 11:00:00 18.6 9 Norte 23 Noroeste 0 1019.9 -- 61
2020-10-05 10:00:00 16.4 5 Norte 15 Norte 0 1019.2 -- 69
2020-10-05 09:00:00 15.3 2 Norte 20 Norte 0 1018.5 -- 70
2020-10-05 08:00:00 15.5 6 Noroeste 19 Norte 0 1018.2 -- 69
2020-10-05 07:00:00 15.7 8 Noroeste 21 Noroeste 0 1017.4 -- 66
2020-10-05 06:00:00 15.5 3 Norte 15 Noroeste 0 1017 -- 63
2020-10-05 05:00:00 15.7 9 Noroeste 23 Norte 0 1017 -- 60
2020-10-05 04:00:00 16.1 9 Noroeste 22 Norte 0 1017 -- 57
2020-10-05 03:00:00 16.5 12 Noroeste 26 Norte 0 1017 -- 54
2020-10-05 02:00:00 17.3 12 Norte 24 Norte 0 1016.5 -- 51
2020-10-05 01:00:00 18.1 11 Noroeste 24 Norte 0 1016.4 -- 49
2020-10-05 00:00:00 19 9 Noroeste 20 Norte 0 1016.1 -- 48
2020-10-04 23:00:00 18.8 6 Noroeste 12 Norte 0 1015.7 -- 47
2020-10-04 22:00:00 18.9 2 Noroeste 7 Norte 0 1014.8 -- 48
2020-10-04 21:00:00 20.4 3 Norte 14 Norte 0 1014.1 -- 45
2020-10-04 20:00:00 21.9 6 Norte 18 Noroeste 0 1013.5 -- 44
2020-10-04 19:00:00 22.9 5 Noroeste 22 Noroeste 0 1013.1 -- 47
2020-10-04 18:00:00 23.3 9 Noroeste 27 Noroeste 0 1012.8 -- 48
2020-10-04 17:00:00 23.6 10 Oeste 33 Sudoeste 0 1012.7 -- 49
2020-10-04 16:00:00 21.2 18 Sudoeste 32 Sudoeste 0 1012.7 -- 55
2020-10-04 15:00:00 20.7 16 Sudoeste 27 Sudoeste 0 1013.4 -- 56
2020-10-04 14:00:00 22.8 14 Sudoeste 27 Sudoeste 0 1014 -- 49
2020-10-04 13:00:00 20.4 10 Sudoeste 19 Sur 0 1014.3 -- 56
2020-10-04 12:00:00 19.9 9 Sudoeste 15 Sudoeste 0 1014.5 -- 52
2020-10-04 11:00:00 18.9 6 Sudoeste 11 Sudoeste 0 1014.2 -- 54
2020-10-04 10:00:00 15.7 0 Calma 6 Noroeste 0 1014.3 -- 72
2020-10-04 09:00:00 12.4 2 Norte 5 Norte 0 1013.6 -- 82
2020-10-04 08:00:00 12.7 3 Noroeste 5 Norte 0 1013.1 -- 78
2020-10-04 07:00:00 13.6 0 Calma 6 Nordeste 0 1013.2 -- 73
2020-10-04 06:00:00 14.5 0 Calma 13 Norte 0 1013.2 -- 68
2020-10-04 05:00:00 15.4 6 Noroeste 17 Norte 0 1013.1 -- 64
2020-10-04 04:00:00 15.9 7 Norte 19 Norte 0 1013.4 -- 62
2020-10-04 03:00:00 16.4 10 Noroeste 19 Norte 0 1013.8 -- 60
2020-10-04 02:00:00 16.7 9 Norte 23 Noroeste 0 1013.8 -- 57
2020-10-04 01:00:00 17.2 10 Noroeste 21 Norte 0 1013.9 -- 56
2020-10-04 00:00:00 18 11 Noroeste 25 Norte 0 1013.9 -- 53
2020-10-03 23:00:00 18.5 8 Noroeste 22 Norte 0 1013.6 -- 52
2020-10-03 22:00:00 19.4 7 Noroeste 15 Norte 0 1013 -- 48
2020-10-03 21:00:00 17.1 3 Norte 7 Oeste 0 1012.2 -- 59
2020-10-03 20:00:00 19.3 4 Sudoeste 17 Sudoeste 0 1011.5 -- 55
2020-10-03 19:00:00 20.1 11 Sudoeste 29 Sudoeste 0 1011.2 -- 56
2020-10-03 18:00:00 20.7 18 Sudoeste 32 Sudoeste 0 1011.5 -- 52
2020-10-03 17:00:00 21.9 18 Sudoeste 31 Sudoeste 0 1012.2 -- 46
2020-10-03 16:00:00 22.1 15 Sudoeste 26 Sudoeste 0 1012.4 -- 42
2020-10-03 15:00:00 23.4 18 Sudoeste 29 Sudoeste 0 1012.7 -- 45
2020-10-03 14:00:00 22.9 7 Noroeste 19 Norte 0 1013.2 -- 33
2020-10-03 13:00:00 21.6 4 Norte 22 Norte 0 1013.5 -- 37
2020-10-03 12:00:00 20.1 10 Norte 24 Norte 0 1013.7 -- 42
2020-10-03 11:00:00 18.2 8 Noroeste 14 Norte 0 1013.4 -- 53
2020-10-03 10:00:00 15.8 4 Noroeste 9 Noroeste 0 1013 -- 62
2020-10-03 09:00:00 13.4 0 Calma 8 Noroeste 0 1012.2 -- 69
2020-10-03 08:00:00 13.4 5 Noroeste 10 Noroeste 0 1011.4 -- 66
2020-10-03 07:00:00 13.7 4 Norte 10 Norte 0 1011.1 -- 64
2020-10-03 06:00:00 14.2 7 Noroeste 13 Noroeste 0 1010.8 -- 60
2020-10-03 05:00:00 14.7 7 Noroeste 14 Noroeste 0 1010.9 -- 58
2020-10-03 04:00:00 14.8 4 Noroeste 14 Norte 0 1010.9 -- 56
2020-10-03 03:00:00 14.9 5 Noroeste 14 Noroeste 0 1010.7 -- 55
2020-10-03 02:00:00 15.2 4 Noroeste 15 Noroeste 0 1010.8 -- 52
2020-10-03 01:00:00 15.9 5 Noroeste 16 Noroeste 0 1010.7 -- 50
2020-10-03 00:00:00 16.9 7 Noroeste 19 Noroeste 0 1010.5 -- 47
2020-10-02 23:00:00 17.4 8 Noroeste 26 Noroeste 0 1009.7 -- 45
2020-10-02 22:00:00 18.5 8 Noroeste 31 Noroeste 0 1009.1 -- 44
2020-10-02 21:00:00 19.9 15 Noroeste 31 Oeste 0 1008 -- 43
2020-10-02 20:00:00 20.7 15 Noroeste 39 Norte 0 1007.1 -- 43
2020-10-02 19:00:00 21.9 12 Noroeste 36 Noroeste 0 1005.7 -- 46
2020-10-02 18:00:00 22.3 16 Noroeste 45 Oeste 0 1005.6 -- 46
2020-10-02 17:00:00 22.9 16 Noroeste 44 Noroeste 0 1005 -- 51
2020-10-02 16:00:00 23.1 17 Noroeste 39 Noroeste 0 1004.9 -- 53
2020-10-02 15:00:00 22.9 11 Noroeste 33 Oeste 0 1004.9 -- 64
2020-10-02 14:00:00 25.1 17 Sudoeste 33 Sudoeste 0 1005.3 -- 56
2020-10-02 13:00:00 23.5 19 Sudoeste 37 Sudoeste 0 1006.3 -- 68
2020-10-02 12:00:00 22 21 Sudoeste 38 Sudoeste 0 1007.1 -- 72
2020-10-02 11:00:00 20.6 20 Sudoeste 34 Sudoeste 0 1007.8 -- 71
2020-10-02 10:00:00 19.8 16 Sudoeste 28 Sudoeste 0 1007.8 -- 74
2020-10-02 09:00:00 19 11 Sudoeste 22 Oeste 0 1008.6 -- 72
2020-10-02 08:00:00 18.8 12 Sudoeste 19 Sudoeste 0 1008.7 -- 73
2020-10-02 07:00:00 17.9 7 Sudoeste 17 Sudoeste 0 1009 -- 76
2020-10-02 06:00:00 17.9 6 Sudoeste 10 Sudoeste 0 1009.6 -- 69
2020-10-02 05:00:00 18.4 4 Sudoeste 13 Noroeste 0 1010.6 -- 64
2020-10-02 04:00:00 18.3 4 Noroeste 19 Noroeste 0 1011.5 -- 64
2020-10-02 03:00:00 18.5 6 Noroeste 18 Noroeste 0 1011.7 -- 62
2020-10-02 02:00:00 18.7 6 Noroeste 17 Noroeste 0 1012.3 -- 60
2020-10-02 01:00:00 19.1 7 Noroeste 19 Norte 0 1012.8 -- 59
2020-10-02 00:00:00 19.5 4 Noroeste 20 Noroeste 0 1013.4 -- 56
2020-10-01 23:00:00 20.5 10 Noroeste 31 Noroeste 0 1013.5 -- 49
2020-10-01 22:00:00 21.7 10 Noroeste 23 Oeste 0 1013.1 -- 47
2020-10-01 21:00:00 23.1 12 Noroeste 24 Noroeste 0 1012.7 -- 45
2020-10-01 20:00:00 24.8 7 Noroeste 26 Norte 0 1011.8 -- 43
2020-10-01 19:00:00 25.6 8 Noroeste -- -- -- 1011.8 -- 44
2020-10-01 18:00:00 -- -- -- -- -- -- -- -- --
2020-10-01 17:00:00 23.7 13 Sudoeste 28 Sudoeste 0 1012.9 -- 54
2020-10-01 16:00:00 25.8 16 Sudoeste 27 Sudoeste 0 1013.6 -- 48
2020-10-01 15:00:00 25.6 13 Sudoeste 23 Norte 0 1013.9 -- 45
2020-10-01 14:00:00 25.7 9 Noroeste 25 Norte 0 1014.6 -- 44
2020-10-01 13:00:00 23.8 10 Norte 28 Noroeste 0 1015.1 -- 47
2020-10-01 12:00:00 22.2 12 Norte 26 Norte 0 1015.6 -- 50
2020-10-01 11:00:00 20.4 12 Noroeste 27 Noroeste 0 1015.4 -- 55
2020-10-01 10:00:00 18.4 8 Norte 29 Norte 0 1015.1 -- 59
2020-10-01 09:00:00 16.7 12 Norte 31 Norte 0 1014.8 -- 64
2020-10-01 08:00:00 16.5 8 Norte 26 Norte 0 1014.6 -- 64
2020-10-01 07:00:00 16.3 13 Norte 27 Noroeste 0 1014.2 -- 64
2020-10-01 06:00:00 16.4 14 Noroeste 33 Noroeste 0 1014.4 -- 65
2020-10-01 05:00:00 16.6 16 Noroeste 35 Norte 0 1014.3 -- 65
2020-10-01 04:00:00 17.3 13 Noroeste 41 Noroeste 0 1014.5 -- 66
2020-10-01 03:00:00 18.4 13 Noroeste 40 Noroeste 0 1014.7 -- 64
2020-10-01 02:00:00 19.5 17 Noroeste 35 Noroeste 0 1014.8 -- 63
2020-10-01 01:00:00 20.8 14 Noroeste 34 Noroeste 0 1014.9 -- 59
2020-10-01 00:00:00 22 12 Noroeste 23 Noroeste 0 1014.8 -- 56
2020-09-30 23:00:00 20 0 Calma 6 Oeste 0 1014.7 -- 78
2020-09-30 22:00:00 21 4 Sudoeste 12 Oeste 0 1014.4 -- 76
2020-09-30 21:00:00 21.7 7 Oeste 16 Sudoeste 0 1014.3 -- 77
2020-09-30 20:00:00 22.5 8 Sudoeste 19 Sudoeste 0 1013.7 -- 74
2020-09-30 19:00:00 23.8 10 Sudoeste 18 Oeste 0 1013.9 -- 68
2020-09-30 18:00:00 24 6 Sudoeste 16 Sudoeste 0 1014 -- 64
2020-09-30 17:00:00 23.5 9 Sudoeste 15 Sur 0 1014.5 -- 59
2020-09-30 16:00:00 24.7 10 Sudoeste 17 Sur 0 1014.7 -- 49
2020-09-30 15:00:00 26 10 Sur 17 Sur 0 1015 -- 47
2020-09-30 14:00:00 25.6 7 Sur 13 Sur 0 1015.7 -- 43
2020-09-30 13:00:00 24.9 6 Sur 10 Sudoeste 0 1016.1 -- 47
2020-09-30 12:00:00 23.9 0 Calma 10 Noroeste 0 1016.1 -- 47
2020-09-30 11:00:00 21.9 4 Norte 13 Noroeste 0 1016.1 -- 52
2020-09-30 10:00:00 20.9 6 Norte 17 Norte 0 1015.6 -- 54
2020-09-30 09:00:00 20.1 7 Norte 11 Norte 0 1015 -- 56
2020-09-30 08:00:00 18.9 3 Nordeste 6 Norte 0 1014.6 -- 60
2020-09-30 07:00:00 19 2 Nordeste 6 Este 0 1014.4 -- 63
2020-09-30 06:00:00 19.8 4 Este 11 Noroeste 0 1014.1 -- 58
2020-09-30 05:00:00 21.1 5 Norte 10 Noroeste 0 1014.1 -- 53
2020-09-30 04:00:00 22.3 4 Norte 14 Norte 0 1014.2 -- 49
2020-09-30 03:00:00 22.7 4 Norte 14 Noroeste 0 1014.5 -- 48
2020-09-30 02:00:00 22 4 Noroeste 13 Norte 0 1014.7 -- 50
2020-09-30 01:00:00 19.5 4 Noroeste 10 Noroeste 0 1014.5 -- 61
2020-09-30 00:00:00 19.9 0 Calma 5 Noroeste 0 1014.6 -- 65